CYED/YED METAR and TAF weather

Enter ICAO airport designator
Station Type Date Time Source
CYED METAR 2019/08/25 02:00 UTC NOAA

CYED 250200Z AUTO 25007KT 9SM CLR 16/12 A2973 RMK SLP074


Station Type Date Time Source
CYED Decoded METAR 2019/08/25 02:00 UTC NOAA

Station name not available
Aug 24, 2019 - 10:00 PM EDT / 2019.08.25 0200 UTC
Wind: from the WSW (250 degrees) at 8 MPH (7 KT):0
Visibility: 9 mile(s):0
Sky conditions: clear
Temperature: 60 F (16 C)
Dew Point: 53 F (12 C)
Relative Humidity: 77%
Pressure (altimeter): 29.73 in. Hg (1006 hPa)
ob: CYED 250200Z AUTO 25007KT 9SM CLR 16/12 A2973 RMK SLP074
cycle: 2

Station Type Date Time Source
CYED TAF 2019/08/24 01:57 UTC NOAA

TAF
AMD TAF
AMD CYED 240555Z 2401/2412 FCST CNCLD DUE END OF FLYING PROGRAM
RMK NXT FCST WILL BE ISSUED AT 261215Z

Example: see airport list